Stafford Springs, Connecticut
Current Conditions -  °F | °C
As of 6:52 AM on Monday 24 Nov 2014 (Local Time) from KIJD Reporting Station
Moderate Rain Moderate Rain  
Wind Chill: 61°   Ceiling: 1000
Heat Index: 61°   Visibility: 4mi
Dew Point: 57°   Wind: 16mph
Humidity: 87%   Direction: 170°S
Pressure: 29.78"   Gusts: 24mph
Location:  41.95°N, 72.3°W
Report Text: KIJD 241152Z AUTO 17014G21KT 4SM RA BR OVC010 16/14 A2978 RMK AO2 SLP083 P0015 60042 70042 T01610139 10161 20028 58051
Loading
Personal Weather Stations






























Interactive Weather Map New forecast layout! Learn more

10-Day Weather Forecast

Advertisements
Track Severe Weather on mobile